createdAt,value
2023-04-04T00:01:20.235Z,54.09
2023-04-04T00:03:51.981Z,54.94
2023-04-04T00:06:22.708Z,53.81
2023-04-04T00:08:51.315Z,52.25
2023-04-04T00:11:19.796Z,51.71
2023-04-04T00:13:48.293Z,53.70
2023-04-04T00:16:16.754Z,51.46
2023-04-04T00:18:45.216Z,48.12
2023-04-04T00:21:13.688Z,49.59
2023-04-04T00:23:43.413Z,48.67
2023-04-04T00:26:11.807Z,48.62
2023-04-04T00:28:41.937Z,49.09
2023-04-04T00:31:10.608Z,49.28
2023-04-04T00:33:39.090Z,49.62
2023-04-04T00:36:07.994Z,50.36
2023-04-04T00:38:36.542Z,49.59
2023-04-04T00:41:07.617Z,49.37
2023-04-04T00:43:36.457Z,50.54
2023-04-04T00:46:05.083Z,49.72
2023-04-04T00:48:33.776Z,49.88
2023-04-04T00:51:02.500Z,49.53
2023-04-04T00:53:30.996Z,50.17
2023-04-04T00:55:59.474Z,50.05
2023-04-04T00:58:29.346Z,49.97
2023-04-04T01:00:58.010Z,50.22
2023-04-04T01:03:26.451Z,50.57
2023-04-04T01:05:55.860Z,50.16
2023-04-04T01:08:27.750Z,50.54
2023-04-04T01:10:56.313Z,50.27
2023-04-04T01:13:25.049Z,50.13
2023-04-04T01:15:55.502Z,50.37
2023-04-04T01:18:26.622Z,50.53
2023-04-04T01:21:00.667Z,50.09
2023-04-04T01:23:41.903Z,50.71
2023-04-04T01:26:12.072Z,50.41
2023-04-04T01:28:41.095Z,51.13
2023-04-04T01:31:15.806Z,50.28
2023-04-04T01:33:52.636Z,50.65
2023-04-04T01:36:27.917Z,50.68
2023-04-04T01:39:02.027Z,50.76
2023-04-04T01:41:35.356Z,50.30
2023-04-04T01:44:05.057Z,50.88
2023-04-04T01:46:33.895Z,51.29
2023-04-04T01:49:02.353Z,51.23
2023-04-04T01:51:35.724Z,51.00
2023-04-04T01:54:04.446Z,50.88
2023-04-04T01:56:34.549Z,50.52
2023-04-04T01:59:03.084Z,50.72
2023-04-04T02:01:33.357Z,50.72
2023-04-04T02:04:02.433Z,50.54
2023-04-04T02:06:31.264Z,50.24
2023-04-04T02:08:59.870Z,50.30
2023-04-04T02:11:28.851Z,50.92
2023-04-04T02:13:58.595Z,50.95
2023-04-04T02:16:28.340Z,50.84
2023-04-04T02:18:56.834Z,51.22
2023-04-04T02:21:26.230Z,51.27
2023-04-04T02:23:54.651Z,51.35
2023-04-04T02:26:23.067Z,51.04
2023-04-04T02:28:51.392Z,50.84
2023-04-04T02:31:21.910Z,50.60
2023-04-04T02:33:50.270Z,50.47
2023-04-04T02:36:20.484Z,50.62
2023-04-04T02:38:51.243Z,50.40
2023-04-04T02:41:21.165Z,50.58
2023-04-04T02:43:49.457Z,50.51
2023-04-04T02:46:22.031Z,50.63
2023-04-04T02:48:55.940Z,50.47
2023-04-04T02:51:24.459Z,50.50
2023-04-04T02:53:53.009Z,50.48
2023-04-04T02:56:26.712Z,50.55
2023-04-04T02:58:55.644Z,50.55
2023-04-04T03:01:25.933Z,50.49
2023-04-04T03:03:54.650Z,51.10
2023-04-04T03:06:24.075Z,50.71
2023-04-04T03:08:52.512Z,51.02
2023-04-04T03:11:21.610Z,50.91
2023-04-04T03:13:52.369Z,50.89
2023-04-04T03:16:27.992Z,50.68
2023-04-04T03:18:57.292Z,50.78
2023-04-04T03:21:25.978Z,50.73
2023-04-04T03:23:57.204Z,51.24
2023-04-04T03:26:28.360Z,50.64
2023-04-04T03:28:57.364Z,51.54
2023-04-04T03:31:28.526Z,50.73
2023-04-04T03:33:56.935Z,51.13
2023-04-04T03:36:25.510Z,50.74
2023-04-04T03:38:53.985Z,51.08
2023-04-04T03:41:22.352Z,51.15
2023-04-04T03:43:50.942Z,51.12
2023-04-04T03:46:19.429Z,50.93
2023-04-04T03:48:50.117Z,50.70
2023-04-04T03:51:25.163Z,51.68
2023-04-04T03:53:53.582Z,51.14
2023-04-04T03:56:21.961Z,51.05
2023-04-04T03:58:50.428Z,50.83
2023-04-04T04:01:22.056Z,51.94
2023-04-04T04:03:52.174Z,51.35
2023-04-04T04:06:20.674Z,51.17
2023-04-04T04:08:49.996Z,51.24
2023-04-04T04:11:18.332Z,51.61
2023-04-04T04:13:46.737Z,51.25
2023-04-04T04:16:15.556Z,51.63
2023-04-04T04:18:44.033Z,51.35
2023-04-04T04:21:18.657Z,52.10
2023-04-04T04:23:47.059Z,51.69
2023-04-04T04:26:15.431Z,52.38
2023-04-04T04:28:43.979Z,51.74
2023-04-04T04:31:16.832Z,51.70
2023-04-04T04:33:49.706Z,51.71
2023-04-04T04:36:22.939Z,51.86
2023-04-04T04:39:02.316Z,52.15
2023-04-04T04:41:34.581Z,51.97
2023-04-04T04:44:04.252Z,52.04
2023-04-04T04:46:33.003Z,51.85
2023-04-04T04:49:02.202Z,52.37
2023-04-04T04:51:34.333Z,51.72
2023-04-04T04:54:02.833Z,52.30
2023-04-04T04:56:33.053Z,51.75
2023-04-04T04:59:09.193Z,51.92
2023-04-04T05:01:40.182Z,51.91
2023-04-04T05:04:08.826Z,51.83
2023-04-04T05:06:45.049Z,52.20
2023-04-04T05:09:14.648Z,51.82
2023-04-04T05:11:43.312Z,52.10
2023-04-04T05:14:13.300Z,52.23
2023-04-04T05:16:49.636Z,52.18
2023-04-04T05:19:19.416Z,52.36
2023-04-04T05:21:54.049Z,52.30
2023-04-04T05:24:40.460Z,53.00
2023-04-04T05:27:09.384Z,52.69
2023-04-04T05:29:43.680Z,52.48
2023-04-04T05:32:12.178Z,53.21
2023-04-04T05:34:43.187Z,53.19
2023-04-04T05:37:18.136Z,53.52
2023-04-04T05:39:50.051Z,53.84
2023-04-04T05:42:19.749Z,53.71
2023-04-04T05:44:52.313Z,53.88
2023-04-04T05:47:22.062Z,53.98
2023-04-04T05:49:51.109Z,53.89
2023-04-04T05:52:22.547Z,54.08
2023-04-04T05:54:52.302Z,54.73
2023-04-04T05:57:28.115Z,54.23
2023-04-04T05:59:58.913Z,53.75
2023-04-04T06:02:29.309Z,53.44
2023-04-04T06:05:02.797Z,53.59
2023-04-04T06:07:38.445Z,53.15
2023-04-04T06:10:08.765Z,52.50
2023-04-04T06:12:37.846Z,52.79
2023-04-04T06:15:11.157Z,51.80
2023-04-04T06:17:41.667Z,50.81
2023-04-04T06:20:12.285Z,50.80
2023-04-04T06:22:43.009Z,50.91
2023-04-04T06:25:11.806Z,51.03
2023-04-04T06:27:41.050Z,50.94
2023-04-04T06:30:12.098Z,51.23
2023-04-04T06:32:41.240Z,50.53
2023-04-04T06:35:13.680Z,50.50
2023-04-04T06:37:47.921Z,50.07
2023-04-04T06:40:20.037Z,50.04
2023-04-04T06:42:50.680Z,50.28
2023-04-04T06:45:20.134Z,49.08
2023-04-04T06:47:49.987Z,53.54
2023-04-04T06:50:18.825Z,54.97
2023-04-04T06:52:51.358Z,50.27
2023-04-04T06:55:20.295Z,49.12
2023-04-04T06:57:48.631Z,47.52
2023-04-04T07:00:17.941Z,47.07
2023-04-04T07:02:46.833Z,46.37
2023-04-04T07:05:18.033Z,46.03
2023-04-04T07:07:47.631Z,45.81
2023-04-04T07:10:17.629Z,46.09
2023-04-04T07:12:46.061Z,45.82
2023-04-04T07:15:14.648Z,45.00
2023-04-04T07:17:43.038Z,44.11
2023-04-04T07:20:12.254Z,41.96
2023-04-04T07:22:40.834Z,42.86
2023-04-04T07:25:10.673Z,40.58
2023-04-04T07:27:41.137Z,39.18
2023-04-04T07:30:11.182Z,37.29
2023-04-04T07:32:39.620Z,36.96
2023-04-04T07:35:09.736Z,37.49
2023-04-04T07:37:38.708Z,37.55
2023-04-04T07:40:09.731Z,39.01
2023-04-04T07:42:46.213Z,37.71
2023-04-04T07:45:14.985Z,38.41
2023-04-04T07:47:46.120Z,36.47
2023-04-04T07:50:15.348Z,36.64
2023-04-04T07:52:44.204Z,37.48
2023-04-04T07:55:13.370Z,37.68
2023-04-04T07:57:44.905Z,37.09
2023-04-04T08:00:14.803Z,36.62
2023-04-04T08:02:45.603Z,34.74
2023-04-04T08:05:14.041Z,35.37
2023-04-04T08:07:42.736Z,34.06
2023-04-04T08:10:11.821Z,33.56
2023-04-04T08:12:40.681Z,34.88
2023-04-04T08:15:12.273Z,33.80
2023-04-04T08:17:40.795Z,33.79
2023-04-04T08:20:09.955Z,33.63
2023-04-04T08:22:38.502Z,33.66
2023-04-04T08:25:07.608Z,33.46
2023-04-04T08:27:36.044Z,32.85
2023-04-04T08:30:05.194Z,32.14
2023-04-04T08:32:34.895Z,31.02
2023-04-04T08:35:03.544Z,33.33
2023-04-04T08:37:32.207Z,31.72
2023-04-04T08:40:00.521Z,30.36
2023-04-04T08:42:29.954Z,30.04
2023-04-04T08:45:03.973Z,30.02
2023-04-04T08:47:36.051Z,29.66
2023-04-04T08:50:07.308Z,30.97
2023-04-04T08:52:36.640Z,30.67
2023-04-04T08:55:08.131Z,30.26
2023-04-04T08:57:37.887Z,29.20
2023-04-04T09:00:08.438Z,28.87
2023-04-04T09:02:48.348Z,30.99
2023-04-04T09:05:17.661Z,30.39
2023-04-04T09:07:46.537Z,29.36
2023-04-04T09:10:14.956Z,28.03
2023-04-04T09:12:47.532Z,26.97
2023-04-04T09:15:17.121Z,27.35
2023-04-04T09:17:46.819Z,26.24
2023-04-04T09:20:41.974Z,27.34
2023-04-04T09:23:13.157Z,26.59
2023-04-04T09:26:02.510Z,27.98
2023-04-04T09:28:33.527Z,26.85
2023-04-04T09:31:05.617Z,27.65
2023-04-04T09:33:36.388Z,27.12
2023-04-04T09:36:10.350Z,26.29
2023-04-04T09:38:43.165Z,26.74
2023-04-04T09:41:11.983Z,26.79
2023-04-04T09:43:41.446Z,25.97
2023-04-04T09:46:10.028Z,25.48
2023-04-04T09:48:39.828Z,27.29
2023-04-04T09:51:13.555Z,27.91
2023-04-04T09:53:42.190Z,24.83
2023-04-04T09:56:10.923Z,25.15
2023-04-04T09:58:46.271Z,26.05
2023-04-04T10:01:19.969Z,26.71
2023-04-04T10:03:55.374Z,26.41
2023-04-04T10:06:25.571Z,27.54
2023-04-04T10:08:54.335Z,27.44
2023-04-04T10:11:32.416Z,27.74
2023-04-04T10:14:02.726Z,27.90
2023-04-04T10:16:34.443Z,27.01
2023-04-04T10:19:07.387Z,27.94
2023-04-04T10:21:36.747Z,26.96
2023-04-04T10:24:09.878Z,25.71
2023-04-04T10:26:38.565Z,26.73
2023-04-04T10:29:06.968Z,26.78
2023-04-04T10:31:41.018Z,29.35
2023-04-04T10:34:16.540Z,27.93
2023-04-04T10:36:50.292Z,27.22
2023-04-04T10:39:27.561Z,27.42
2023-04-04T10:41:57.483Z,27.80
2023-04-04T10:44:31.823Z,27.35
2023-04-04T10:47:05.790Z,27.50
2023-04-04T10:49:36.771Z,26.04
2023-04-04T10:52:05.694Z,26.62
2023-04-04T10:54:34.755Z,27.76
2023-04-04T10:57:04.511Z,28.35
2023-04-04T10:59:32.901Z,27.21
2023-04-04T11:02:03.468Z,28.36
2023-04-04T11:04:42.639Z,27.86
2023-04-04T11:07:17.266Z,27.99
2023-04-04T11:09:56.664Z,27.67
2023-04-04T11:12:34.210Z,27.54
2023-04-04T11:15:11.047Z,27.97
2023-04-04T11:17:57.687Z,27.94
2023-04-04T11:20:34.525Z,27.67
2023-04-04T11:23:11.448Z,28.07
2023-04-04T11:25:42.956Z,27.32
2023-04-04T11:28:26.630Z,28.93
2023-04-04T11:31:27.676Z,29.75
2023-04-04T11:34:01.940Z,27.87
2023-04-04T11:36:56.443Z,29.00
2023-04-04T11:39:29.507Z,29.16
2023-04-04T11:42:03.522Z,29.85
2023-04-04T11:44:34.279Z,31.15
2023-04-04T11:47:10.756Z,28.26
2023-04-04T11:49:41.674Z,28.08
2023-04-04T11:52:14.156Z,28.49
2023-04-04T11:54:44.853Z,28.11
2023-04-04T11:57:14.262Z,28.25
2023-04-04T11:59:44.641Z,27.91
2023-04-04T12:02:14.624Z,29.09
2023-04-04T12:04:44.714Z,28.21
2023-04-04T12:07:15.436Z,31.23
2023-04-04T12:09:44.060Z,29.01
2023-04-04T12:12:16.340Z,29.54
2023-04-04T12:14:45.324Z,29.41
2023-04-04T12:17:14.485Z,29.53
2023-04-04T12:19:44.440Z,28.70
2023-04-04T12:22:14.815Z,28.80
2023-04-04T12:24:43.287Z,29.36
2023-04-04T12:27:11.797Z,29.00
2023-04-04T12:29:40.584Z,29.79
2023-04-04T12:32:10.853Z,30.09
2023-04-04T12:34:48.660Z,29.69
2023-04-04T12:37:23.583Z,29.53
2023-04-04T12:39:52.486Z,29.32
2023-04-04T12:42:26.374Z,29.76
2023-04-04T12:44:55.416Z,29.62
2023-04-04T12:47:26.423Z,31.12
2023-04-04T12:49:56.042Z,30.46
2023-04-04T12:52:32.743Z,30.47
2023-04-04T12:55:09.756Z,30.70
2023-04-04T12:57:40.654Z,30.46
2023-04-04T13:00:10.692Z,31.19
2023-04-04T13:02:40.181Z,31.93
2023-04-04T13:05:11.216Z,31.09
2023-04-04T13:07:44.322Z,30.99
2023-04-04T13:10:16.374Z,31.05
2023-04-04T13:13:00.140Z,30.33
2023-04-04T13:15:59.306Z,30.52
2023-04-04T13:18:33.957Z,31.01
2023-04-04T13:21:02.268Z,29.25
2023-04-04T13:23:32.308Z,29.63
2023-04-04T13:26:00.639Z,30.27
2023-04-04T13:28:29.090Z,29.42
2023-04-04T13:30:57.537Z,29.59
2023-04-04T13:33:25.914Z,29.99
2023-04-04T13:35:54.544Z,29.75
2023-04-04T13:38:23.333Z,30.50
2023-04-04T13:40:54.468Z,30.18
2023-04-04T13:43:22.745Z,31.08
2023-04-04T13:45:53.014Z,31.17
2023-04-04T13:48:21.548Z,31.58
2023-04-04T13:50:51.542Z,31.49
2023-04-04T13:53:20.151Z,30.75
2023-04-04T13:56:02.174Z,31.29
2023-04-04T13:58:38.247Z,31.39
2023-04-04T14:01:07.140Z,30.79
2023-04-04T14:03:36.044Z,31.54
2023-04-04T14:06:10.501Z,31.39
2023-04-04T14:08:40.274Z,31.15
2023-04-04T14:11:08.971Z,31.43
2023-04-04T14:13:38.748Z,31.62
2023-04-04T14:16:09.381Z,32.18
2023-04-04T14:18:37.813Z,32.42
2023-04-04T14:21:07.281Z,33.65
2023-04-04T14:23:35.639Z,32.58
2023-04-04T14:26:04.520Z,32.53
2023-04-04T14:28:33.724Z,30.88
2023-04-04T14:31:03.455Z,31.59
2023-04-04T14:33:31.937Z,33.07
2023-04-04T14:36:00.493Z,32.14
2023-04-04T14:38:33.133Z,31.67
2023-04-04T14:41:02.725Z,31.78
2023-04-04T14:43:31.065Z,31.95
2023-04-04T14:45:59.370Z,31.73
2023-04-04T14:48:29.102Z,31.55
2023-04-04T14:50:57.914Z,32.23
2023-04-04T14:53:26.311Z,31.88
2023-04-04T14:55:54.693Z,32.14
2023-04-04T14:58:23.189Z,31.63
2023-04-04T15:00:52.267Z,32.17
2023-04-04T15:03:20.625Z,32.72
2023-04-04T15:05:50.657Z,32.02
2023-04-04T15:08:18.991Z,31.92
2023-04-04T15:10:47.416Z,30.57
2023-04-04T15:13:15.772Z,31.05
2023-04-04T15:15:44.301Z,31.36
2023-04-04T15:18:12.609Z,31.88
2023-04-04T15:20:41.068Z,31.14
2023-04-04T15:23:10.849Z,30.72
2023-04-04T15:25:39.237Z,31.27
2023-04-04T15:28:07.578Z,31.37
2023-04-04T15:30:35.916Z,30.56
2023-04-04T15:33:04.436Z,30.64
2023-04-04T15:35:32.895Z,30.60
2023-04-04T15:38:01.273Z,31.41
2023-04-04T15:40:31.056Z,30.59
2023-04-04T15:42:59.657Z,31.62
2023-04-04T15:45:28.316Z,31.78
2023-04-04T15:47:56.747Z,32.35
2023-04-04T15:50:25.263Z,31.32
2023-04-04T15:52:53.636Z,31.34
2023-04-04T15:55:22.247Z,31.26
2023-04-04T15:57:52.014Z,31.22
2023-04-04T16:00:20.883Z,31.62
2023-04-04T16:02:49.268Z,31.80
2023-04-04T16:05:17.789Z,31.14
2023-04-04T16:07:46.258Z,32.36
2023-04-04T16:10:14.653Z,32.38
2023-04-04T16:12:43.100Z,31.86
2023-04-04T16:15:13.478Z,32.79
2023-04-04T16:17:41.784Z,32.15
2023-04-04T16:20:13.021Z,32.51
2023-04-04T16:22:41.491Z,32.56
2023-04-04T16:25:10.720Z,31.61
2023-04-04T16:27:39.048Z,32.12
2023-04-04T16:30:09.146Z,32.97
2023-04-04T16:32:39.011Z,32.51
2023-04-04T16:35:09.291Z,32.38
2023-04-04T16:37:37.606Z,32.56
2023-04-04T16:40:06.945Z,31.93
2023-04-04T16:42:35.339Z,32.68
2023-04-04T16:45:03.818Z,32.98
2023-04-04T16:47:32.274Z,32.28
2023-04-04T16:50:02.047Z,32.23
2023-04-04T16:52:30.513Z,33.12
2023-04-04T16:54:59.007Z,32.76
2023-04-04T16:57:28.377Z,32.45
2023-04-04T16:59:57.263Z,33.62
2023-04-04T17:02:25.624Z,33.29
2023-04-04T17:04:54.284Z,34.14
2023-04-04T17:07:24.294Z,33.59
2023-04-04T17:09:52.808Z,33.89
2023-04-04T17:12:21.619Z,33.55
2023-04-04T17:14:50.026Z,33.59
2023-04-04T17:17:18.420Z,34.59
2023-04-04T17:19:46.773Z,34.56
2023-04-04T17:22:16.076Z,34.50
2023-04-04T17:24:46.064Z,34.92
2023-04-04T17:27:14.486Z,35.04
2023-04-04T17:29:43.031Z,35.86
2023-04-04T17:32:11.893Z,35.62
2023-04-04T17:34:40.505Z,35.87
2023-04-04T17:37:11.132Z,36.46
2023-04-04T17:39:39.799Z,35.72
2023-04-04T17:42:09.628Z,36.12
2023-04-04T17:44:38.141Z,35.92
2023-04-04T17:47:06.809Z,35.90
2023-04-04T17:49:35.881Z,36.41
2023-04-04T17:52:04.825Z,36.96
2023-04-04T17:54:33.497Z,36.79
2023-04-04T17:57:03.370Z,41.21
2023-04-04T17:59:33.176Z,40.22
2023-04-04T18:02:01.747Z,38.22
2023-04-04T18:04:30.232Z,38.11
2023-04-04T18:06:59.276Z,37.70
2023-04-04T18:09:29.014Z,39.94
2023-04-04T18:11:57.985Z,38.11
2023-04-04T18:14:26.513Z,37.83
2023-04-04T18:16:56.567Z,37.12
2023-04-04T18:19:25.056Z,38.30
2023-04-04T18:21:59.685Z,38.06
2023-04-04T18:24:28.301Z,38.57
2023-04-04T18:26:56.890Z,38.67
2023-04-04T18:29:26.849Z,38.53
2023-04-04T18:31:56.660Z,39.54
2023-04-04T18:34:25.038Z,39.80
2023-04-04T18:36:53.446Z,39.31
2023-04-04T18:39:21.811Z,39.84
2023-04-04T18:41:51.408Z,40.55
2023-04-04T18:44:19.954Z,39.63
2023-04-04T18:46:48.443Z,40.14
2023-04-04T18:49:18.298Z,40.31
2023-04-04T18:51:48.419Z,40.66
2023-04-04T18:54:17.051Z,40.55
2023-04-04T18:56:45.618Z,40.86
2023-04-04T18:59:14.989Z,41.32
2023-04-04T19:01:43.429Z,41.48
2023-04-04T19:04:12.622Z,41.27
2023-04-04T19:06:43.660Z,41.46
2023-04-04T19:09:13.141Z,42.39
2023-04-04T19:11:43.764Z,41.58
2023-04-04T19:14:12.145Z,42.49
2023-04-04T19:16:41.371Z,43.03
2023-04-04T19:19:09.814Z,42.73
2023-04-04T19:21:38.199Z,41.47
2023-04-04T19:24:08.899Z,41.74
2023-04-04T19:26:37.304Z,41.54
2023-04-04T19:29:06.269Z,42.00
2023-04-04T19:31:34.682Z,41.80
2023-04-04T19:34:03.833Z,42.50
2023-04-04T19:36:37.734Z,42.39
2023-04-04T19:39:10.569Z,42.32
2023-04-04T19:41:40.201Z,42.65
2023-04-04T19:44:19.339Z,42.92
2023-04-04T19:46:48.434Z,41.93
2023-04-04T19:49:17.966Z,42.56
2023-04-04T19:51:54.076Z,43.54
2023-04-04T19:54:39.016Z,43.69
2023-04-04T19:57:16.800Z,44.02
2023-04-04T20:00:13.714Z,43.30
2023-04-04T20:02:57.894Z,44.94
2023-04-04T20:06:06.631Z,44.35
2023-04-04T20:08:43.947Z,44.18
2023-04-04T20:11:14.565Z,44.81
2023-04-04T20:13:43.144Z,44.81
2023-04-04T20:16:14.081Z,44.34
2023-04-04T20:18:45.266Z,44.15
2023-04-04T20:21:16.405Z,44.15
2023-04-04T20:23:49.412Z,44.37
2023-04-04T20:26:54.996Z,45.27
2023-04-04T20:29:27.213Z,45.17
2023-04-04T20:31:58.052Z,45.17
2023-04-04T20:34:44.654Z,45.03
2023-04-04T20:37:16.246Z,46.18
2023-04-04T20:39:50.558Z,45.90
2023-04-04T20:42:34.192Z,46.39
2023-04-04T20:45:34.865Z,46.25
2023-04-04T20:48:06.664Z,45.98
2023-04-04T20:50:46.364Z,46.28
2023-04-04T20:53:24.443Z,46.89
2023-04-04T20:55:53.954Z,46.49
2023-04-04T20:58:30.009Z,46.71
2023-04-04T21:01:00.888Z,46.68
2023-04-04T21:03:34.730Z,46.65
2023-04-04T21:06:12.679Z,46.17
2023-04-04T21:08:46.473Z,46.34
2023-04-04T21:11:25.340Z,47.24
2023-04-04T21:13:56.065Z,47.07
2023-04-04T21:16:29.480Z,46.65
2023-04-04T21:19:01.039Z,47.44
2023-04-04T21:21:30.110Z,47.35
2023-04-04T21:24:00.367Z,47.27
2023-04-04T21:26:34.495Z,47.06
2023-04-04T21:29:06.948Z,47.84
2023-04-04T21:31:38.568Z,47.82
2023-04-04T21:34:13.244Z,47.41
2023-04-04T21:36:42.661Z,48.47
2023-04-04T21:39:16.053Z,48.46
2023-04-04T21:41:46.017Z,47.91
2023-04-04T21:44:15.870Z,47.83
2023-04-04T21:46:44.395Z,47.87
2023-04-04T21:49:13.262Z,47.78
2023-04-04T21:51:41.772Z,47.81
2023-04-04T21:54:10.420Z,47.61
2023-04-04T21:56:39.212Z,48.32
2023-04-04T21:59:10.232Z,47.54
2023-04-04T22:01:40.952Z,47.49
2023-04-04T22:04:09.546Z,48.49
2023-04-04T22:06:37.981Z,47.89
2023-04-04T22:09:06.648Z,48.11
2023-04-04T22:11:38.956Z,48.67
2023-04-04T22:14:08.079Z,47.93
2023-04-04T22:16:39.738Z,47.94
2023-04-04T22:19:11.381Z,48.06
2023-04-04T22:21:48.226Z,48.26
2023-04-04T22:24:17.948Z,47.92
2023-04-04T22:26:47.423Z,49.13
2023-04-04T22:29:16.163Z,49.15
2023-04-04T22:31:44.743Z,48.81
2023-04-04T22:34:15.575Z,48.45
2023-04-04T22:36:44.867Z,48.15
2023-04-04T22:39:16.189Z,49.20
2023-04-04T22:41:45.605Z,48.95
2023-04-04T22:44:14.217Z,49.02
2023-04-04T22:46:43.027Z,49.60
2023-04-04T22:49:13.360Z,48.87
2023-04-04T22:51:46.277Z,48.40
2023-04-04T22:54:17.294Z,48.70
2023-04-04T22:56:46.104Z,48.83
2023-04-04T22:59:14.725Z,48.55
2023-04-04T23:01:43.632Z,49.53
2023-04-04T23:04:12.360Z,49.33
2023-04-04T23:06:46.354Z,49.97
2023-04-04T23:09:14.819Z,49.55
2023-04-04T23:11:43.252Z,49.91
2023-04-04T23:14:14.842Z,50.46
2023-04-04T23:16:43.620Z,50.84
2023-04-04T23:19:12.345Z,50.17
2023-04-04T23:21:40.819Z,51.01
2023-04-04T23:24:10.641Z,51.83
2023-04-04T23:26:39.105Z,51.39
2023-04-04T23:29:07.508Z,51.95
2023-04-04T23:31:36.509Z,51.78
2023-04-04T23:34:04.996Z,52.72
2023-04-04T23:36:33.652Z,51.82
2023-04-04T23:39:02.094Z,51.67
2023-04-04T23:41:32.354Z,52.52
2023-04-04T23:44:01.063Z,52.01
2023-04-04T23:46:30.564Z,51.98
2023-04-04T23:48:59.052Z,52.77
2023-04-04T23:51:30.438Z,51.87
2023-04-04T23:53:58.818Z,52.61
2023-04-04T23:56:27.213Z,52.22
2023-04-04T23:58:57.091Z,52.73
